sensor_id;sensor_type;location;lat;lon;timestamp;P1;durP1;ratioP1;P2;durP2;ratioP2
30243;SDS011;61465;53.652;9.792;2022-08-16T00:00:58;15.97;;;11.13;;
30243;SDS011;61465;53.652;9.792;2022-08-16T00:03:24;17.30;;;11.77;;
30243;SDS011;61465;53.652;9.792;2022-08-16T00:05:49;15.23;;;11.67;;
30243;SDS011;61465;53.652;9.792;2022-08-16T00:08:16;16.50;;;11.50;;
30243;SDS011;61465;53.652;9.792;2022-08-16T00:10:42;15.93;;;10.23;;
30243;SDS011;61465;53.652;9.792;2022-08-16T00:13:08;14.43;;;10.63;;
30243;SDS011;61465;53.652;9.792;2022-08-16T00:15:39;14.35;;;10.85;;
30243;SDS011;61465;53.652;9.792;2022-08-16T00:18:07;13.75;;;10.35;;
30243;SDS011;61465;53.652;9.792;2022-08-16T00:20:34;14.82;;;10.35;;
30243;SDS011;61465;53.652;9.792;2022-08-16T00:23:03;17.77;;;11.02;;
30243;SDS011;61465;53.652;9.792;2022-08-16T00:25:29;13.57;;;10.80;;
30243;SDS011;61465;53.652;9.792;2022-08-16T00:27:55;13.37;;;9.63;;
30243;SDS011;61465;53.652;9.792;2022-08-16T00:30:20;17.17;;;11.17;;
30243;SDS011;61465;53.652;9.792;2022-08-16T00:32:48;15.95;;;10.93;;
30243;SDS011;61465;53.652;9.792;2022-08-16T00:35:18;14.35;;;9.80;;
30243;SDS011;61465;53.652;9.792;2022-08-16T00:37:48;15.90;;;10.98;;
30243;SDS011;61465;53.652;9.792;2022-08-16T00:40:17;18.47;;;11.17;;
30243;SDS011;61465;53.652;9.792;2022-08-16T00:42:45;16.40;;;11.68;;
30243;SDS011;61465;53.652;9.792;2022-08-16T00:47:49;17.98;;;11.43;;
30243;SDS011;61465;53.652;9.792;2022-08-16T00:50:18;14.05;;;10.95;;
30243;SDS011;61465;53.652;9.792;2022-08-16T00:52:46;14.77;;;11.60;;
30243;SDS011;61465;53.652;9.792;2022-08-16T00:55:40;13.88;;;11.07;;
30243;SDS011;61465;53.652;9.792;2022-08-16T00:58:10;14.65;;;10.85;;
30243;SDS011;61465;53.652;9.792;2022-08-16T01:00:37;18.23;;;11.70;;
30243;SDS011;61465;53.652;9.792;2022-08-16T01:03:05;15.53;;;10.77;;
30243;SDS011;61465;53.652;9.792;2022-08-16T01:05:33;19.50;;;11.88;;
30243;SDS011;61465;53.652;9.792;2022-08-16T01:08:00;15.30;;;11.65;;
30243;SDS011;61465;53.652;9.792;2022-08-16T01:10:27;14.68;;;11.38;;
30243;SDS011;61465;53.652;9.792;2022-08-16T01:12:56;15.30;;;11.43;;
30243;SDS011;61465;53.652;9.792;2022-08-16T01:15:24;15.68;;;11.45;;
30243;SDS011;61465;53.652;9.792;2022-08-16T01:17:50;15.35;;;10.80;;
30243;SDS011;61465;53.652;9.792;2022-08-16T01:20:17;13.85;;;11.70;;
30243;SDS011;61465;53.652;9.792;2022-08-16T01:25:21;17.38;;;11.90;;
30243;SDS011;61465;53.652;9.792;2022-08-16T01:27:57;14.38;;;11.77;;
30243;SDS011;61465;53.652;9.792;2022-08-16T01:30:30;16.70;;;12.45;;
30243;SDS011;61465;53.652;9.792;2022-08-16T01:33:00;17.85;;;12.35;;
30243;SDS011;61465;53.652;9.792;2022-08-16T01:35:29;17.65;;;12.63;;
30243;SDS011;61465;53.652;9.792;2022-08-16T01:38:16;18.42;;;12.48;;
30243;SDS011;61465;53.652;9.792;2022-08-16T01:40:55;14.48;;;11.65;;
30243;SDS011;61465;53.652;9.792;2022-08-16T01:43:39;20.48;;;11.73;;
30243;SDS011;61465;53.652;9.792;2022-08-16T01:46:07;15.95;;;12.50;;
30243;SDS011;61465;53.652;9.792;2022-08-16T01:48:43;17.10;;;11.70;;
30243;SDS011;61465;53.652;9.792;2022-08-16T01:51:10;17.83;;;11.95;;
30243;SDS011;61465;53.652;9.792;2022-08-16T01:53:38;14.85;;;11.88;;
30243;SDS011;61465;53.652;9.792;2022-08-16T01:56:04;18.73;;;11.90;;
30243;SDS011;61465;53.652;9.792;2022-08-16T01:58:30;20.83;;;12.77;;
30243;SDS011;61465;53.652;9.792;2022-08-16T02:00:56;16.13;;;13.10;;
30243;SDS011;61465;53.652;9.792;2022-08-16T02:03:22;21.30;;;14.10;;
30243;SDS011;61465;53.652;9.792;2022-08-16T02:05:47;19.23;;;13.70;;
30243;SDS011;61465;53.652;9.792;2022-08-16T02:08:13;19.17;;;14.20;;
30243;SDS011;61465;53.652;9.792;2022-08-16T02:10:38;19.77;;;15.57;;
30243;SDS011;61465;53.652;9.792;2022-08-16T02:13:05;21.57;;;14.63;;
30243;SDS011;61465;53.652;9.792;2022-08-16T02:15:32;20.15;;;15.18;;
30243;SDS011;61465;53.652;9.792;2022-08-16T02:17:59;21.58;;;14.00;;
30243;SDS011;61465;53.652;9.792;2022-08-16T02:22:52;19.73;;;14.05;;
30243;SDS011;61465;53.652;9.792;2022-08-16T02:25:19;20.38;;;15.57;;
30243;SDS011;61465;53.652;9.792;2022-08-16T02:27:45;22.47;;;15.67;;
30243;SDS011;61465;53.652;9.792;2022-08-16T02:30:15;20.73;;;15.67;;
30243;SDS011;61465;53.652;9.792;2022-08-16T02:32:43;23.33;;;15.75;;
30243;SDS011;61465;53.652;9.792;2022-08-16T02:35:09;20.50;;;15.38;;
30243;SDS011;61465;53.652;9.792;2022-08-16T02:37:35;21.70;;;14.82;;
30243;SDS011;61465;53.652;9.792;2022-08-16T02:40:01;23.87;;;15.40;;
30243;SDS011;61465;53.652;9.792;2022-08-16T02:42:29;21.83;;;15.18;;
30243;SDS011;61465;53.652;9.792;2022-08-16T02:44:54;20.73;;;15.27;;
30243;SDS011;61465;53.652;9.792;2022-08-16T02:47:20;22.20;;;15.03;;
30243;SDS011;61465;53.652;9.792;2022-08-16T02:49:45;21.40;;;16.00;;
30243;SDS011;61465;53.652;9.792;2022-08-16T02:52:12;20.15;;;14.65;;
30243;SDS011;61465;53.652;9.792;2022-08-16T02:55:08;20.15;;;13.68;;
30243;SDS011;61465;53.652;9.792;2022-08-16T02:57:34;22.02;;;14.90;;
30243;SDS011;61465;53.652;9.792;2022-08-16T02:59:59;19.90;;;14.97;;
30243;SDS011;61465;53.652;9.792;2022-08-16T03:02:29;21.10;;;15.95;;
30243;SDS011;61465;53.652;9.792;2022-08-16T03:04:55;23.27;;;15.83;;
30243;SDS011;61465;53.652;9.792;2022-08-16T03:07:20;23.10;;;16.27;;
30243;SDS011;61465;53.652;9.792;2022-08-16T03:09:46;22.87;;;15.70;;
30243;SDS011;61465;53.652;9.792;2022-08-16T03:12:11;21.43;;;16.07;;
30243;SDS011;61465;53.652;9.792;2022-08-16T03:14:37;21.80;;;15.73;;
30243;SDS011;61465;53.652;9.792;2022-08-16T03:17:02;21.73;;;16.33;;
30243;SDS011;61465;53.652;9.792;2022-08-16T03:19:29;21.50;;;15.67;;
30243;SDS011;61465;53.652;9.792;2022-08-16T03:21:56;25.20;;;17.27;;
30243;SDS011;61465;53.652;9.792;2022-08-16T03:24:22;22.80;;;16.37;;
30243;SDS011;61465;53.652;9.792;2022-08-16T03:26:48;25.67;;;18.40;;
30243;SDS011;61465;53.652;9.792;2022-08-16T03:29:14;24.77;;;16.67;;
30243;SDS011;61465;53.652;9.792;2022-08-16T03:31:39;24.63;;;17.00;;
30243;SDS011;61465;53.652;9.792;2022-08-16T03:34:05;23.83;;;16.60;;
30243;SDS011;61465;53.652;9.792;2022-08-16T03:36:31;25.77;;;16.87;;
30243;SDS011;61465;53.652;9.792;2022-08-16T03:38:56;23.52;;;16.58;;
30243;SDS011;61465;53.652;9.792;2022-08-16T03:41:22;25.73;;;16.43;;
30243;SDS011;61465;53.652;9.792;2022-08-16T03:43:50;26.83;;;17.80;;
30243;SDS011;61465;53.652;9.792;2022-08-16T03:46:18;26.00;;;17.90;;
30243;SDS011;61465;53.652;9.792;2022-08-16T03:48:46;26.95;;;17.30;;
30243;SDS011;61465;53.652;9.792;2022-08-16T03:53:39;28.65;;;17.70;;
30243;SDS011;61465;53.652;9.792;2022-08-16T03:56:05;24.98;;;17.27;;
30243;SDS011;61465;53.652;9.792;2022-08-16T03:58:31;27.23;;;18.77;;
30243;SDS011;61465;53.652;9.792;2022-08-16T04:00:57;31.48;;;19.00;;
30243;SDS011;61465;53.652;9.792;2022-08-16T04:03:23;28.40;;;18.87;;
30243;SDS011;61465;53.652;9.792;2022-08-16T04:05:49;28.75;;;18.05;;
30243;SDS011;61465;53.652;9.792;2022-08-16T04:08:15;34.15;;;18.85;;
30243;SDS011;61465;53.652;9.792;2022-08-16T04:10:43;39.05;;;24.10;;
30243;SDS011;61465;53.652;9.792;2022-08-16T04:13:08;34.27;;;21.03;;
30243;SDS011;61465;53.652;9.792;2022-08-16T04:15:34;28.33;;;19.53;;
30243;SDS011;61465;53.652;9.792;2022-08-16T04:18:00;28.47;;;19.53;;
30243;SDS011;61465;53.652;9.792;2022-08-16T04:20:25;29.83;;;20.77;;
30243;SDS011;61465;53.652;9.792;2022-08-16T04:22:52;29.08;;;19.50;;
30243;SDS011;61465;53.652;9.792;2022-08-16T04:25:18;25.63;;;18.70;;
30243;SDS011;61465;53.652;9.792;2022-08-16T04:27:44;34.60;;;19.13;;
30243;SDS011;61465;53.652;9.792;2022-08-16T04:30:10;27.60;;;19.13;;
30243;SDS011;61465;53.652;9.792;2022-08-16T04:32:38;30.35;;;19.35;;
30243;SDS011;61465;53.652;9.792;2022-08-16T04:35:04;32.05;;;20.92;;
30243;SDS011;61465;53.652;9.792;2022-08-16T04:37:31;29.52;;;19.35;;
30243;SDS011;61465;53.652;9.792;2022-08-16T04:39:57;28.57;;;20.03;;
30243;SDS011;61465;53.652;9.792;2022-08-16T04:42:23;43.00;;;23.87;;
30243;SDS011;61465;53.652;9.792;2022-08-16T04:44:48;37.57;;;22.67;;
30243;SDS011;61465;53.652;9.792;2022-08-16T04:47:14;31.85;;;20.70;;
30243;SDS011;61465;53.652;9.792;2022-08-16T04:49:39;27.57;;;19.77;;
30243;SDS011;61465;53.652;9.792;2022-08-16T04:52:05;34.40;;;21.27;;
30243;SDS011;61465;53.652;9.792;2022-08-16T04:54:30;29.67;;;20.23;;
30243;SDS011;61465;53.652;9.792;2022-08-16T04:56:56;34.07;;;20.63;;
30243;SDS011;61465;53.652;9.792;2022-08-16T04:59:22;34.07;;;20.43;;
30243;SDS011;61465;53.652;9.792;2022-08-16T05:01:47;29.17;;;19.87;;
30243;SDS011;61465;53.652;9.792;2022-08-16T05:04:13;36.40;;;21.30;;
30243;SDS011;61465;53.652;9.792;2022-08-16T05:06:39;32.08;;;20.95;;
30243;SDS011;61465;53.652;9.792;2022-08-16T05:09:04;31.07;;;19.57;;
30243;SDS011;61465;53.652;9.792;2022-08-16T05:11:30;33.60;;;20.73;;
30243;SDS011;61465;53.652;9.792;2022-08-16T05:13:56;31.03;;;19.47;;
30243;SDS011;61465;53.652;9.792;2022-08-16T05:16:26;32.40;;;20.10;;
30243;SDS011;61465;53.652;9.792;2022-08-16T05:18:54;31.55;;;19.90;;
30243;SDS011;61465;53.652;9.792;2022-08-16T05:21:20;30.98;;;19.38;;
30243;SDS011;61465;53.652;9.792;2022-08-16T05:23:47;29.60;;;20.33;;
30243;SDS011;61465;53.652;9.792;2022-08-16T05:26:14;29.15;;;19.20;;
30243;SDS011;61465;53.652;9.792;2022-08-16T05:28:39;32.67;;;21.33;;
30243;SDS011;61465;53.652;9.792;2022-08-16T05:31:05;33.57;;;21.23;;
30243;SDS011;61465;53.652;9.792;2022-08-16T05:33:30;34.10;;;21.80;;
30243;SDS011;61465;53.652;9.792;2022-08-16T05:35:56;30.50;;;19.93;;
30243;SDS011;61465;53.652;9.792;2022-08-16T05:38:22;29.27;;;19.50;;
30243;SDS011;61465;53.652;9.792;2022-08-16T05:40:54;27.83;;;19.20;;
30243;SDS011;61465;53.652;9.792;2022-08-16T05:43:21;27.80;;;18.52;;
30243;SDS011;61465;53.652;9.792;2022-08-16T05:45:46;30.87;;;20.67;;
30243;SDS011;61465;53.652;9.792;2022-08-16T05:48:13;30.15;;;19.58;;
30243;SDS011;61465;53.652;9.792;2022-08-16T05:50:38;29.90;;;18.90;;
30243;SDS011;61465;53.652;9.792;2022-08-16T05:53:04;30.77;;;18.93;;
30243;SDS011;61465;53.652;9.792;2022-08-16T05:55:31;32.35;;;18.83;;
30243;SDS011;61465;53.652;9.792;2022-08-16T05:57:56;30.63;;;19.23;;
30243;SDS011;61465;53.652;9.792;2022-08-16T06:00:22;32.47;;;19.47;;
30243;SDS011;61465;53.652;9.792;2022-08-16T06:02:49;34.88;;;19.58;;
30243;SDS011;61465;53.652;9.792;2022-08-16T06:05:14;28.97;;;18.50;;
30243;SDS011;61465;53.652;9.792;2022-08-16T06:07:42;29.13;;;17.83;;
30243;SDS011;61465;53.652;9.792;2022-08-16T06:10:08;29.10;;;18.43;;
30243;SDS011;61465;53.652;9.792;2022-08-16T06:12:34;29.10;;;18.50;;
30243;SDS011;61465;53.652;9.792;2022-08-16T06:15:02;23.97;;;16.67;;
30243;SDS011;61465;53.652;9.792;2022-08-16T06:17:30;30.63;;;17.38;;
30243;SDS011;61465;53.652;9.792;2022-08-16T06:19:56;30.17;;;17.57;;
30243;SDS011;61465;53.652;9.792;2022-08-16T06:22:21;27.50;;;16.47;;
30243;SDS011;61465;53.652;9.792;2022-08-16T06:24:47;25.23;;;15.30;;
30243;SDS011;61465;53.652;9.792;2022-08-16T06:27:13;23.33;;;15.85;;
30243;SDS011;61465;53.652;9.792;2022-08-16T06:29:39;28.80;;;16.70;;
30243;SDS011;61465;53.652;9.792;2022-08-16T06:32:05;23.77;;;15.50;;
30243;SDS011;61465;53.652;9.792;2022-08-16T06:34:32;22.17;;;14.07;;
30243;SDS011;61465;53.652;9.792;2022-08-16T06:37:00;25.42;;;16.67;;
30243;SDS011;61465;53.652;9.792;2022-08-16T06:39:27;24.17;;;14.88;;
30243;SDS011;61465;53.652;9.792;2022-08-16T06:41:57;25.27;;;15.60;;
30243;SDS011;61465;53.652;9.792;2022-08-16T06:44:24;21.70;;;15.35;;
30243;SDS011;61465;53.652;9.792;2022-08-16T06:46:49;21.73;;;13.57;;
30243;SDS011;61465;53.652;9.792;2022-08-16T06:49:15;22.97;;;14.13;;
30243;SDS011;61465;53.652;9.792;2022-08-16T06:51:41;18.38;;;14.00;;
30243;SDS011;61465;53.652;9.792;2022-08-16T06:54:08;18.73;;;12.32;;
30243;SDS011;61465;53.652;9.792;2022-08-16T06:56:34;17.50;;;11.95;;
30243;SDS011;61465;53.652;9.792;2022-08-16T06:59:01;22.75;;;13.60;;
30243;SDS011;61465;53.652;9.792;2022-08-16T07:01:27;14.77;;;11.13;;
30243;SDS011;61465;53.652;9.792;2022-08-16T07:03:54;19.05;;;12.73;;
30243;SDS011;61465;53.652;9.792;2022-08-16T07:06:19;14.80;;;12.03;;
30243;SDS011;61465;53.652;9.792;2022-08-16T07:08:46;13.40;;;10.85;;
30243;SDS011;61465;53.652;9.792;2022-08-16T07:13:39;15.98;;;9.73;;
30243;SDS011;61465;53.652;9.792;2022-08-16T07:16:05;17.30;;;10.67;;
30243;SDS011;61465;53.652;9.792;2022-08-16T07:18:38;15.05;;;10.68;;
30243;SDS011;61465;53.652;9.792;2022-08-16T07:21:06;15.65;;;10.60;;
30243;SDS011;61465;53.652;9.792;2022-08-16T07:23:32;13.93;;;9.93;;
30243;SDS011;61465;53.652;9.792;2022-08-16T07:25:58;16.40;;;10.33;;
30243;SDS011;61465;53.652;9.792;2022-08-16T07:28:23;15.37;;;10.00;;
30243;SDS011;61465;53.652;9.792;2022-08-16T07:30:51;13.07;;;9.77;;
30243;SDS011;61465;53.652;9.792;2022-08-16T07:33:16;10.93;;;8.88;;
30243;SDS011;61465;53.652;9.792;2022-08-16T07:35:43;11.47;;;9.23;;
30243;SDS011;61465;53.652;9.792;2022-08-16T07:38:19;13.95;;;8.75;;
30243;SDS011;61465;53.652;9.792;2022-08-16T07:40:51;13.52;;;9.55;;
30243;SDS011;61465;53.652;9.792;2022-08-16T07:43:18;15.20;;;9.32;;
30243;SDS011;61465;53.652;9.792;2022-08-16T07:45:43;14.03;;;9.33;;
30243;SDS011;61465;53.652;9.792;2022-08-16T07:48:09;14.83;;;8.87;;
30243;SDS011;61465;53.652;9.792;2022-08-16T07:50:35;19.07;;;8.63;;
30243;SDS011;61465;53.652;9.792;2022-08-16T07:53:00;10.50;;;8.13;;
30243;SDS011;61465;53.652;9.792;2022-08-16T07:55:26;16.10;;;8.00;;
30243;SDS011;61465;53.652;9.792;2022-08-16T07:57:52;11.60;;;8.82;;
30243;SDS011;61465;53.652;9.792;2022-08-16T08:00:18;11.47;;;8.77;;
30243;SDS011;61465;53.652;9.792;2022-08-16T08:02:44;14.87;;;8.43;;
30243;SDS011;61465;53.652;9.792;2022-08-16T08:05:11;13.35;;;9.80;;
30243;SDS011;61465;53.652;9.792;2022-08-16T08:07:37;12.80;;;8.35;;
30243;SDS011;61465;53.652;9.792;2022-08-16T08:10:03;14.87;;;9.20;;
30243;SDS011;61465;53.652;9.792;2022-08-16T08:12:29;12.20;;;8.13;;
30243;SDS011;61465;53.652;9.792;2022-08-16T08:14:57;12.45;;;8.50;;
30243;SDS011;61465;53.652;9.792;2022-08-16T08:17:23;12.52;;;8.45;;
30243;SDS011;61465;53.652;9.792;2022-08-16T08:19:48;14.37;;;8.40;;
30243;SDS011;61465;53.652;9.792;2022-08-16T08:22:14;15.63;;;8.23;;
30243;SDS011;61465;53.652;9.792;2022-08-16T08:24:40;13.63;;;7.70;;
30243;SDS011;61465;53.652;9.792;2022-08-16T08:27:15;15.10;;;7.13;;
30243;SDS011;61465;53.652;9.792;2022-08-16T08:29:51;12.40;;;7.57;;
30243;SDS011;61465;53.652;9.792;2022-08-16T08:32:20;11.90;;;7.60;;
30243;SDS011;61465;53.652;9.792;2022-08-16T08:34:47;13.75;;;7.10;;
30243;SDS011;61465;53.652;9.792;2022-08-16T08:37:15;9.87;;;6.33;;
30243;SDS011;61465;53.652;9.792;2022-08-16T08:39:45;12.95;;;6.85;;
30243;SDS011;61465;53.652;9.792;2022-08-16T08:42:10;8.53;;;5.77;;
30243;SDS011;61465;53.652;9.792;2022-08-16T08:44:36;11.57;;;5.90;;
30243;SDS011;61465;53.652;9.792;2022-08-16T08:47:03;10.68;;;5.78;;
30243;SDS011;61465;53.652;9.792;2022-08-16T08:49:30;7.22;;;4.65;;
30243;SDS011;61465;53.652;9.792;2022-08-16T08:51:57;6.40;;;4.70;;
30243;SDS011;61465;53.652;9.792;2022-08-16T08:54:23;7.38;;;4.85;;
30243;SDS011;61465;53.652;9.792;2022-08-16T08:56:50;12.77;;;6.07;;
30243;SDS011;61465;53.652;9.792;2022-08-16T08:59:16;12.23;;;7.07;;
30243;SDS011;61465;53.652;9.792;2022-08-16T09:01:41;10.88;;;6.38;;
30243;SDS011;61465;53.652;9.792;2022-08-16T09:04:08;6.63;;;4.80;;
30243;SDS011;61465;53.652;9.792;2022-08-16T09:06:34;15.18;;;4.53;;
30243;SDS011;61465;53.652;9.792;2022-08-16T09:09:04;6.05;;;4.22;;
30243;SDS011;61465;53.652;9.792;2022-08-16T09:11:30;5.63;;;3.97;;
30243;SDS011;61465;53.652;9.792;2022-08-16T09:13:58;11.63;;;8.82;;
30243;SDS011;61465;53.652;9.792;2022-08-16T09:18:49;11.05;;;4.40;;
30243;SDS011;61465;53.652;9.792;2022-08-16T09:23:41;5.63;;;3.80;;
30243;SDS011;61465;53.652;9.792;2022-08-16T09:28:35;7.78;;;4.80;;
30243;SDS011;61465;53.652;9.792;2022-08-16T09:31:02;7.30;;;4.53;;
30243;SDS011;61465;53.652;9.792;2022-08-16T09:33:29;6.38;;;5.18;;
30243;SDS011;61465;53.652;9.792;2022-08-16T09:38:24;6.25;;;4.05;;
30243;SDS011;61465;53.652;9.792;2022-08-16T09:40:50;5.95;;;4.15;;
30243;SDS011;61465;53.652;9.792;2022-08-16T09:45:43;7.05;;;4.35;;
30243;SDS011;61465;53.652;9.792;2022-08-16T09:48:10;9.38;;;4.65;;
30243;SDS011;61465;53.652;9.792;2022-08-16T09:50:45;7.45;;;5.20;;
30243;SDS011;61465;53.652;9.792;2022-08-16T09:53:16;5.60;;;4.43;;
30243;SDS011;61465;53.652;9.792;2022-08-16T09:55:52;8.43;;;5.53;;
30243;SDS011;61465;53.652;9.792;2022-08-16T09:58:41;7.50;;;5.68;;
30243;SDS011;61465;53.652;9.792;2022-08-16T10:01:06;5.18;;;4.60;;
30243;SDS011;61465;53.652;9.792;2022-08-16T10:03:32;8.75;;;5.07;;
30243;SDS011;61465;53.652;9.792;2022-08-16T10:05:57;11.57;;;5.93;;
30243;SDS011;61465;53.652;9.792;2022-08-16T10:08:23;5.65;;;4.43;;
30243;SDS011;61465;53.652;9.792;2022-08-16T10:10:49;7.10;;;5.25;;
30243;SDS011;61465;53.652;9.792;2022-08-16T10:13:33;9.65;;;5.90;;
30243;SDS011;61465;53.652;9.792;2022-08-16T10:15:59;11.52;;;5.82;;
30243;SDS011;61465;53.652;9.792;2022-08-16T10:20:52;7.20;;;4.78;;
30243;SDS011;61465;53.652;9.792;2022-08-16T10:23:19;5.65;;;4.95;;
30243;SDS011;61465;53.652;9.792;2022-08-16T10:25:45;8.45;;;5.38;;
30243;SDS011;61465;53.652;9.792;2022-08-16T10:28:12;8.80;;;5.47;;
30243;SDS011;61465;53.652;9.792;2022-08-16T10:30:39;9.55;;;6.03;;
30243;SDS011;61465;53.652;9.792;2022-08-16T10:33:09;8.15;;;5.45;;
30243;SDS011;61465;53.652;9.792;2022-08-16T10:35:46;7.55;;;5.13;;
30243;SDS011;61465;53.652;9.792;2022-08-16T10:38:29;12.15;;;6.07;;
30243;SDS011;61465;53.652;9.792;2022-08-16T10:40:55;8.95;;;5.28;;
30243;SDS011;61465;53.652;9.792;2022-08-16T10:43:21;8.93;;;5.45;;
30243;SDS011;61465;53.652;9.792;2022-08-16T10:45:47;11.57;;;5.75;;
30243;SDS011;61465;53.652;9.792;2022-08-16T10:48:16;7.68;;;5.03;;
30243;SDS011;61465;53.652;9.792;2022-08-16T10:50:42;11.95;;;5.50;;
30243;SDS011;61465;53.652;9.792;2022-08-16T10:53:09;6.53;;;4.90;;
30243;SDS011;61465;53.652;9.792;2022-08-16T10:55:37;7.93;;;5.57;;
30243;SDS011;61465;53.652;9.792;2022-08-16T10:58:09;10.18;;;7.00;;
30243;SDS011;61465;53.652;9.792;2022-08-16T11:00:37;6.45;;;5.20;;
30243;SDS011;61465;53.652;9.792;2022-08-16T11:03:05;10.75;;;5.25;;
30243;SDS011;61465;53.652;9.792;2022-08-16T11:05:33;5.50;;;4.65;;
30243;SDS011;61465;53.652;9.792;2022-08-16T11:08:01;6.50;;;5.28;;
30243;SDS011;61465;53.652;9.792;2022-08-16T11:10:32;8.07;;;5.57;;
30243;SDS011;61465;53.652;9.792;2022-08-16T11:13:00;8.80;;;6.35;;
30243;SDS011;61465;53.652;9.792;2022-08-16T11:15:27;7.53;;;6.22;;
30243;SDS011;61465;53.652;9.792;2022-08-16T11:17:53;9.25;;;5.90;;
30243;SDS011;61465;53.652;9.792;2022-08-16T11:20:19;8.98;;;6.10;;
30243;SDS011;61465;53.652;9.792;2022-08-16T11:22:46;10.23;;;6.35;;
30243;SDS011;61465;53.652;9.792;2022-08-16T11:25:14;9.18;;;6.10;;
30243;SDS011;61465;53.652;9.792;2022-08-16T11:27:45;9.82;;;6.00;;
30243;SDS011;61465;53.652;9.792;2022-08-16T11:30:12;10.97;;;6.03;;
30243;SDS011;61465;53.652;9.792;2022-08-16T11:32:39;8.10;;;5.90;;
30243;SDS011;61465;53.652;9.792;2022-08-16T11:35:11;74.10;;;9.60;;
30243;SDS011;61465;53.652;9.792;2022-08-16T11:37:40;10.60;;;5.60;;
30243;SDS011;61465;53.652;9.792;2022-08-16T11:40:08;8.27;;;6.15;;
30243;SDS011;61465;53.652;9.792;2022-08-16T11:42:34;9.20;;;6.07;;
30243;SDS011;61465;53.652;9.792;2022-08-16T11:45:00;8.27;;;6.87;;
30243;SDS011;61465;53.652;9.792;2022-08-16T11:47:25;8.10;;;5.83;;
30243;SDS011;61465;53.652;9.792;2022-08-16T11:49:51;6.13;;;5.50;;
30243;SDS011;61465;53.652;9.792;2022-08-16T11:52:16;10.98;;;5.80;;
30243;SDS011;61465;53.652;9.792;2022-08-16T11:54:43;6.95;;;6.25;;
30243;SDS011;61465;53.652;9.792;2022-08-16T11:57:09;6.97;;;6.30;;
30243;SDS011;61465;53.652;9.792;2022-08-16T11:59:36;6.07;;;5.47;;
30243;SDS011;61465;53.652;9.792;2022-08-16T12:02:03;8.90;;;6.05;;
30243;SDS011;61465;53.652;9.792;2022-08-16T12:04:32;8.10;;;6.28;;
30243;SDS011;61465;53.652;9.792;2022-08-16T12:07:00;10.05;;;5.82;;
30243;SDS011;61465;53.652;9.792;2022-08-16T12:09:27;10.45;;;6.93;;
30243;SDS011;61465;53.652;9.792;2022-08-16T12:11:54;23.63;;;7.53;;
30243;SDS011;61465;53.652;9.792;2022-08-16T12:14:24;9.65;;;7.20;;
30243;SDS011;61465;53.652;9.792;2022-08-16T12:16:52;12.27;;;6.57;;
30243;SDS011;61465;53.652;9.792;2022-08-16T12:19:20;14.35;;;7.20;;
30243;SDS011;61465;53.652;9.792;2022-08-16T12:24:12;12.10;;;6.75;;
30243;SDS011;61465;53.652;9.792;2022-08-16T12:26:37;11.90;;;6.90;;
30243;SDS011;61465;53.652;9.792;2022-08-16T12:29:03;11.47;;;7.37;;
30243;SDS011;61465;53.652;9.792;2022-08-16T12:31:28;10.07;;;6.80;;
30243;SDS011;61465;53.652;9.792;2022-08-16T12:33:55;7.57;;;6.78;;
30243;SDS011;61465;53.652;9.792;2022-08-16T12:36:20;10.33;;;7.03;;
30243;SDS011;61465;53.652;9.792;2022-08-16T12:38:46;12.90;;;7.78;;
30243;SDS011;61465;53.652;9.792;2022-08-16T12:41:12;9.75;;;6.90;;
30243;SDS011;61465;53.652;9.792;2022-08-16T12:43:39;9.27;;;6.80;;
30243;SDS011;61465;53.652;9.792;2022-08-16T12:46:06;12.23;;;7.53;;
30243;SDS011;61465;53.652;9.792;2022-08-16T12:48:33;8.55;;;6.80;;
30243;SDS011;61465;53.652;9.792;2022-08-16T12:51:19;8.32;;;6.05;;
30243;SDS011;61465;53.652;9.792;2022-08-16T12:53:47;9.18;;;5.25;;
30243;SDS011;61465;53.652;9.792;2022-08-16T12:56:16;8.95;;;6.20;;
30243;SDS011;61465;53.652;9.792;2022-08-16T12:58:43;9.07;;;6.15;;
30243;SDS011;61465;53.652;9.792;2022-08-16T13:01:11;8.07;;;7.20;;
30243;SDS011;61465;53.652;9.792;2022-08-16T13:03:37;11.80;;;6.78;;
30243;SDS011;61465;53.652;9.792;2022-08-16T13:06:03;11.88;;;6.80;;
30243;SDS011;61465;53.652;9.792;2022-08-16T13:08:28;12.33;;;6.47;;
30243;SDS011;61465;53.652;9.792;2022-08-16T13:10:54;11.50;;;6.93;;
30243;SDS011;61465;53.652;9.792;2022-08-16T13:13:21;9.37;;;6.87;;
30243;SDS011;61465;53.652;9.792;2022-08-16T13:15:54;12.27;;;7.30;;
30243;SDS011;61465;53.652;9.792;2022-08-16T13:18:21;14.18;;;7.20;;
30243;SDS011;61465;53.652;9.792;2022-08-16T13:20:48;12.25;;;7.00;;
30243;SDS011;61465;53.652;9.792;2022-08-16T13:23:15;6.82;;;6.05;;
30243;SDS011;61465;53.652;9.792;2022-08-16T13:25:42;9.45;;;6.47;;
30243;SDS011;61465;53.652;9.792;2022-08-16T13:28:10;11.93;;;8.02;;
30243;SDS011;61465;53.652;9.792;2022-08-16T13:30:38;8.43;;;7.55;;
30243;SDS011;61465;53.652;9.792;2022-08-16T13:33:16;10.85;;;6.20;;
30243;SDS011;61465;53.652;9.792;2022-08-16T13:35:46;8.07;;;7.10;;
30243;SDS011;61465;53.652;9.792;2022-08-16T13:38:13;9.07;;;6.53;;
30243;SDS011;61465;53.652;9.792;2022-08-16T13:40:40;9.25;;;6.72;;
30243;SDS011;61465;53.652;9.792;2022-08-16T13:43:05;8.68;;;6.18;;
30243;SDS011;61465;53.652;9.792;2022-08-16T13:45:31;10.93;;;6.30;;
30243;SDS011;61465;53.652;9.792;2022-08-16T13:47:57;10.95;;;7.05;;
30243;SDS011;61465;53.652;9.792;2022-08-16T13:50:23;7.78;;;5.85;;
30243;SDS011;61465;53.652;9.792;2022-08-16T13:52:49;11.30;;;7.32;;
30243;SDS011;61465;53.652;9.792;2022-08-16T13:55:15;15.90;;;7.47;;
30243;SDS011;61465;53.652;9.792;2022-08-16T13:57:41;9.73;;;6.73;;
30243;SDS011;61465;53.652;9.792;2022-08-16T14:00:07;7.05;;;5.95;;
30243;SDS011;61465;53.652;9.792;2022-08-16T14:02:33;9.77;;;6.00;;
30243;SDS011;61465;53.652;9.792;2022-08-16T14:04:59;8.18;;;5.60;;
30243;SDS011;61465;53.652;9.792;2022-08-16T14:07:25;10.57;;;5.77;;
30243;SDS011;61465;53.652;9.792;2022-08-16T14:09:51;8.87;;;5.37;;
30243;SDS011;61465;53.652;9.792;2022-08-16T14:12:20;8.70;;;5.85;;
30243;SDS011;61465;53.652;9.792;2022-08-16T14:15:03;8.18;;;6.07;;
30243;SDS011;61465;53.652;9.792;2022-08-16T14:17:34;8.55;;;5.57;;
30243;SDS011;61465;53.652;9.792;2022-08-16T14:20:00;9.20;;;5.33;;
30243;SDS011;61465;53.652;9.792;2022-08-16T14:22:27;7.30;;;5.60;;
30243;SDS011;61465;53.652;9.792;2022-08-16T14:24:58;6.55;;;5.18;;
30243;SDS011;61465;53.652;9.792;2022-08-16T14:27:25;6.55;;;5.25;;
30243;SDS011;61465;53.652;9.792;2022-08-16T14:29:53;6.88;;;5.40;;
30243;SDS011;61465;53.652;9.792;2022-08-16T14:32:22;6.63;;;5.55;;
30243;SDS011;61465;53.652;9.792;2022-08-16T14:34:49;13.60;;;6.22;;
30243;SDS011;61465;53.652;9.792;2022-08-16T14:37:16;12.70;;;5.22;;
30243;SDS011;61465;53.652;9.792;2022-08-16T14:39:42;6.35;;;4.55;;
30243;SDS011;61465;53.652;9.792;2022-08-16T14:42:09;7.38;;;5.70;;
30243;SDS011;61465;53.652;9.792;2022-08-16T14:44:36;6.97;;;5.07;;
30243;SDS011;61465;53.652;9.792;2022-08-16T14:47:02;8.25;;;4.75;;
30243;SDS011;61465;53.652;9.792;2022-08-16T14:49:28;7.63;;;5.50;;
30243;SDS011;61465;53.652;9.792;2022-08-16T14:51:58;5.93;;;5.22;;
30243;SDS011;61465;53.652;9.792;2022-08-16T14:54:27;9.30;;;5.47;;
30243;SDS011;61465;53.652;9.792;2022-08-16T14:56:53;9.43;;;5.60;;
30243;SDS011;61465;53.652;9.792;2022-08-16T14:59:18;8.40;;;6.23;;
30243;SDS011;61465;53.652;9.792;2022-08-16T15:01:44;7.10;;;4.93;;